createdAt,value
2023-03-23T16:00:42.393Z,99982.72
2023-03-23T16:03:50.355Z,99980.56
2023-03-23T16:06:56.891Z,99989.44
2023-03-23T16:10:03.558Z,99991.53
2023-03-23T16:13:07.145Z,99996.16
2023-03-23T16:16:18.073Z,100012.25
2023-03-23T16:19:24.538Z,100012.50
2023-03-23T16:22:27.673Z,100018.75
2023-03-23T16:25:31.478Z,100028.44
2023-03-23T16:28:36.427Z,100040.72
2023-03-23T16:31:41.115Z,100025.63
2023-03-23T16:34:44.282Z,100017.09
2023-03-23T16:37:50.397Z,100013.13
2023-03-23T16:40:55.936Z,100009.03
2023-03-23T16:43:59.021Z,100012.59
2023-03-23T16:47:03.316Z,100019.16
2023-03-23T16:50:11.640Z,100030.09
2023-03-23T16:53:16.700Z,100031.22
2023-03-23T16:56:22.698Z,100048.13
2023-03-23T16:59:28.375Z,100067.47
2023-03-23T17:02:33.316Z,100093.28
2023-03-23T17:05:38.208Z,100097.78
2023-03-23T17:08:41.220Z,100092.16
2023-03-23T17:11:44.618Z,100113.44
2023-03-23T17:14:48.176Z,100104.59
2023-03-23T17:17:54.278Z,100110.47
2023-03-23T17:20:57.493Z,100119.03
2023-03-23T17:24:00.591Z,100100.63
2023-03-23T17:27:31.413Z,100116.06
2023-03-23T17:30:35.600Z,100110.28
2023-03-23T17:33:39.958Z,100123.81
2023-03-23T17:36:42.961Z,100118.06
2023-03-23T17:39:47.601Z,100129.63
2023-03-23T17:42:51.492Z,100141.72
2023-03-23T17:45:55.164Z,100152.50
2023-03-23T17:48:59.504Z,100167.66
2023-03-23T17:52:02.670Z,100160.97
2023-03-23T17:55:06.791Z,100162.88
2023-03-23T17:58:10.226Z,100163.13
2023-03-23T18:01:13.797Z,100143.16
2023-03-23T18:04:19.453Z,100148.41
2023-03-23T18:07:23.888Z,100139.75
2023-03-23T18:10:29.392Z,100134.63
2023-03-23T18:13:35.070Z,100123.66
2023-03-23T18:16:38.807Z,100126.94
2023-03-23T18:19:45.050Z,100136.81
2023-03-23T18:22:48.351Z,100137.38
2023-03-23T18:25:53.574Z,100136.28
2023-03-23T18:28:56.963Z,100160.22
2023-03-23T18:32:01.262Z,100167.88
2023-03-23T18:35:08.349Z,100170.09
2023-03-23T18:38:12.163Z,100185.50
2023-03-23T18:41:16.477Z,100199.72
2023-03-23T18:44:23.752Z,100207.06
2023-03-23T18:47:29.422Z,100187.50
2023-03-23T18:50:34.577Z,100195.31
2023-03-23T18:53:38.237Z,100183.88
2023-03-23T18:56:41.344Z,100181.97
2023-03-23T18:59:44.808Z,100171.00
2023-03-23T19:02:52.008Z,100161.38
2023-03-23T19:05:59.438Z,100179.28
2023-03-23T19:09:02.736Z,100159.78
2023-03-23T19:12:14.190Z,100173.38
2023-03-23T19:15:18.303Z,100169.06
2023-03-23T19:18:21.555Z,100164.13
2023-03-23T19:21:29.899Z,100159.88
2023-03-23T19:24:35.275Z,100171.25
2023-03-23T19:28:05.765Z,100161.09
2023-03-23T19:31:04.858Z,100167.28
2023-03-23T19:34:10.568Z,100163.25
2023-03-23T19:37:18.038Z,100157.66
2023-03-23T19:40:35.550Z,100161.09
2023-03-23T19:43:43.189Z,100162.22
2023-03-23T19:46:47.988Z,100156.69
2023-03-23T19:49:52.963Z,100158.47
2023-03-23T19:52:58.642Z,100163.50
2023-03-23T19:56:05.136Z,100159.38
2023-03-23T19:59:14.985Z,100152.75
2023-03-23T20:02:18.059Z,100153.59
2023-03-23T20:05:21.250Z,100164.53
2023-03-23T20:08:26.050Z,100154.38
2023-03-23T20:11:32.174Z,100164.81
2023-03-23T20:14:36.892Z,100166.91
2023-03-23T20:17:40.571Z,100168.31
2023-03-23T20:20:43.817Z,100155.22
2023-03-23T20:23:49.429Z,100156.03
2023-03-23T20:26:52.381Z,100148.69
2023-03-23T20:29:57.475Z,100154.00
2023-03-23T20:33:03.777Z,100157.88
2023-03-23T20:36:09.711Z,100149.50
2023-03-23T20:39:21.282Z,100148.94
2023-03-23T20:42:26.369Z,100147.59
2023-03-23T20:45:29.414Z,100134.94
2023-03-23T20:48:35.428Z,100138.81
2023-03-23T20:51:40.037Z,100146.09
2023-03-23T20:54:44.704Z,100143.19
2023-03-23T20:57:47.852Z,100137.53
2023-03-23T21:00:51.693Z,100142.50
2023-03-23T21:03:57.013Z,100145.94
2023-03-23T21:07:00.966Z,100146.63
2023-03-23T21:10:05.769Z,100145.81
2023-03-23T21:13:10.168Z,100151.63
2023-03-23T21:16:13.682Z,100157.06
2023-03-23T21:19:20.186Z,100146.59
2023-03-23T21:22:23.226Z,100150.13
2023-03-23T21:25:35.149Z,100136.41
2023-03-23T21:28:38.650Z,100119.81
2023-03-23T21:31:41.744Z,100110.31
2023-03-23T21:34:47.402Z,100102.50
2023-03-23T21:37:50.479Z,100113.19
2023-03-23T21:40:55.214Z,100104.44
2023-03-23T21:44:00.124Z,100103.72
2023-03-23T21:47:05.090Z,100106.16
2023-03-23T21:50:09.557Z,100093.72
2023-03-23T21:53:18.248Z,100106.47
2023-03-23T21:56:24.617Z,100097.94
2023-03-23T21:59:29.791Z,100104.19
2023-03-23T22:02:32.828Z,100105.19
2023-03-23T22:05:55.653Z,100104.53
2023-03-23T22:08:59.220Z,100098.41
2023-03-23T22:12:04.501Z,100106.28
2023-03-23T22:15:17.324Z,100086.63
2023-03-23T22:18:20.462Z,100088.31
2023-03-23T22:21:25.943Z,100089.53
2023-03-23T22:24:29.275Z,100090.84
2023-03-23T22:27:33.610Z,100086.13
2023-03-23T22:30:37.004Z,100088.28
2023-03-23T22:33:40.769Z,100077.84
2023-03-23T22:36:43.783Z,100075.75
2023-03-23T22:39:46.827Z,100072.09
2023-03-23T22:42:51.504Z,100069.97
2023-03-23T22:45:55.560Z,100067.81
2023-03-23T22:48:58.600Z,100064.28
2023-03-23T22:52:02.176Z,100056.94
2023-03-23T22:55:08.460Z,100057.06
2023-03-23T22:58:14.074Z,100054.09
2023-03-23T23:01:21.510Z,100052.00
2023-03-23T23:04:25.172Z,100048.09
2023-03-23T23:07:28.415Z,100039.94
2023-03-23T23:10:31.406Z,100045.38
2023-03-23T23:13:37.932Z,100033.56
2023-03-23T23:16:42.274Z,100039.47
2023-03-23T23:19:45.291Z,100032.97
2023-03-23T23:22:48.557Z,100033.59
2023-03-23T23:25:52.149Z,100028.25
2023-03-23T23:28:56.809Z,100026.00
2023-03-23T23:32:02.420Z,100020.19
2023-03-23T23:35:08.588Z,100022.72
2023-03-23T23:38:12.581Z,100014.78
2023-03-23T23:41:15.764Z,100014.44
2023-03-23T23:44:20.021Z,100010.06
2023-03-23T23:47:23.426Z,100004.50
2023-03-23T23:50:27.066Z,99999.66
2023-03-23T23:53:32.011Z,100004.03
2023-03-23T23:56:35.010Z,99993.63
2023-03-23T23:59:39.364Z,99991.50
